Time;durP1;ratioP1;P1;durP2;ratioP2;P2;SDS_P1;SDS_P2;PMS_P1;PMS_P2;Temp;Humidity;BMP_temperature;BMP_pressure;BME280_temperature;BME280_humidity;BME280_pressure;Samples;Min_cycle;Max_cycle;Signal;HPM_P1;HPM_P2
2021/11/08 00:00:25;;;;;;;36.33;8.45;;;6.30;99.90;;;;;;5041191;28;20033;-58
2021/11/08 00:02:52;;;;;;;31.67;6.97;;;6.20;99.90;;;;;;5041789;28;20021;-60
2021/11/08 00:05:17;;;;;;;30.20;7.55;;;6.10;99.90;;;;;;5050796;28;20745;-59
2021/11/08 00:07:46;;;;;;;35.83;7.32;;;6.00;99.90;;;;;;5042232;28;20136;-59
2021/11/08 00:10:12;;;;;;;31.23;6.25;;;6.00;99.90;;;;;;5047764;28;20020;-60
2021/11/08 00:12:38;;;;;;;38.10;6.75;;;5.90;99.90;;;;;;5049253;28;20055;-59
2021/11/08 00:15:06;;;;;;;27.17;5.88;;;5.90;99.90;;;;;;5049179;28;20025;-58
2021/11/08 00:17:47;;;;;;;32.97;5.82;;;5.80;99.90;;;;;;5048180;28;20079;-59
2021/11/08 00:20:22;;;;;;;31.45;6.50;;;5.80;99.90;;;;;;5043170;28;20028;-61
2021/11/08 00:22:47;;;;;;;;;;;5.70;99.90;;;;;;5046754;28;20017;-59
2021/11/08 00:25:13;;;;;;;27.05;6.18;;;5.70;99.90;;;;;;5048479;28;20389;-59
2021/11/08 00:27:39;;;;;;;25.77;6.18;;;5.60;99.90;;;;;;5046168;28;20013;-60
2021/11/08 00:30:06;;;;;;;31.90;7.30;;;5.60;99.90;;;;;;5042961;28;20017;-61
2021/11/08 00:32:33;;;;;;;21.92;6.15;;;5.60;99.90;;;;;;5042481;28;20383;-54
2021/11/08 00:34:58;;;;;;;45.10;7.90;;;5.60;99.90;;;;;;5047031;28;21519;-60
2021/11/08 00:37:24;;;;;;;24.42;6.00;;;5.60;99.90;;;;;;5048840;28;20104;-58
2021/11/08 00:39:50;;;;;;;38.00;6.50;;;5.50;99.90;;;;;;5048887;28;20340;-56
2021/11/08 00:42:15;;;;;;;29.05;6.25;;;5.50;99.90;;;;;;5050198;28;20020;-58
2021/11/08 00:44:41;;;;;;;38.85;5.97;;;5.50;99.90;;;;;;5049487;28;20555;-61
2021/11/08 00:47:08;;;;;;;31.67;7.30;;;5.40;99.90;;;;;;5049051;28;20549;-61
2021/11/08 00:49:36;;;;;;;33.80;6.93;;;5.40;99.90;;;;;;5040001;28;20087;-58
2021/11/08 00:52:02;;;;;;;37.28;7.80;;;5.40;99.90;;;;;;5035822;28;20033;-58
2021/11/08 00:54:28;;;;;;;30.30;5.88;;;5.40;99.90;;;;;;5049317;28;20028;-60
2021/11/08 00:56:58;;;;;;;23.00;6.20;;;5.40;99.90;;;;;;5047870;28;20501;-58
2021/11/08 00:59:25;;;;;;;37.97;7.40;;;5.50;99.90;;;;;;5047887;28;20496;-60
2021/11/08 01:01:53;;;;;;;30.20;6.53;;;5.50;99.90;;;;;;5045143;28;20576;-59
2021/11/08 01:04:22;;;;;;;29.73;9.57;;;5.60;99.90;;;;;;5046305;28;20490;-61
2021/11/08 01:06:49;;;;;;;26.75;6.53;;;5.70;99.90;;;;;;5040890;28;20281;-58
2021/11/08 01:09:16;;;;;;;38.38;7.63;;;5.70;99.90;;;;;;5041450;28;20542;-59
2021/11/08 01:11:43;;;;;;;31.38;6.50;;;5.80;99.90;;;;;;5047797;28;20032;-60
2021/11/08 01:14:09;;;;;;;30.52;6.15;;;5.80;99.90;;;;;;5048609;28;20158;-60
2021/11/08 01:16:37;;;;;;;32.72;7.88;;;5.80;99.90;;;;;;5049273;28;20021;-60
2021/11/08 01:19:06;;;;;;;29.10;6.57;;;5.80;99.90;;;;;;5049016;28;20029;-60
2021/11/08 01:21:31;;;;;;;31.70;6.35;;;5.80;99.90;;;;;;5049583;28;20617;-60
2021/11/08 01:23:57;;;;;;;23.10;5.57;;;5.70;99.90;;;;;;5048580;28;20029;-60
2021/11/08 01:26:22;;;;;;;27.83;5.70;;;5.70;99.90;;;;;;5048814;28;20059;-60
2021/11/08 01:28:49;;;;;;;28.80;6.47;;;5.60;99.90;;;;;;5048720;28;20106;-60
2021/11/08 01:31:16;;;;;;;30.75;6.78;;;5.60;99.90;;;;;;5042301;28;20038;-62
2021/11/08 01:33:45;;;;;;;39.58;8.55;;;5.50;99.90;;;;;;5049246;28;20075;-58
2021/11/08 01:36:14;;;;;;;29.25;6.45;;;5.50;99.90;;;;;;5048376;28;20028;-59
2021/11/08 01:38:48;;;;;;;31.58;6.88;;;5.40;99.90;;;;;;5044071;28;20059;-58
2021/11/08 01:41:20;;;;;;;27.73;6.70;;;5.40;99.90;;;;;;5047864;28;20029;-60
2021/11/08 01:43:47;;;;;;;28.85;7.47;;;5.50;99.90;;;;;;5048431;28;20116;-54
2021/11/08 01:46:13;;;;;;;41.03;10.55;;;5.50;99.90;;;;;;5042638;28;20087;-59
2021/11/08 01:48:39;;;;;;;31.60;9.60;;;5.60;99.90;;;;;;5040792;28;20440;-57
2021/11/08 01:51:07;;;;;;;36.22;7.20;;;5.70;99.90;;;;;;5047672;28;20047;-58
2021/11/08 01:53:33;;;;;;;37.28;7.10;;;5.80;99.90;;;;;;5040653;28;20022;-58
2021/11/08 01:55:58;;;;;;;20.50;6.15;;;5.90;99.90;;;;;;5053500;28;20047;-59
2021/11/08 01:58:28;;;;;;;36.58;8.88;;;5.90;99.90;;;;;;5049381;28;20029;-60
2021/11/08 02:00:54;;;;;;;34.63;8.32;;;6.00;99.90;;;;;;5052878;28;20394;-59
2021/11/08 02:03:21;;;;;;;36.58;7.82;;;6.00;99.90;;;;;;5052187;28;20017;-60
2021/11/08 02:05:47;;;;;;;36.25;7.80;;;6.10;99.90;;;;;;5053217;28;20071;-56
2021/11/08 02:08:14;;;;;;;41.85;9.13;;;6.20;99.90;;;;;;5052474;28;20062;-60
2021/11/08 02:10:39;;;;;;;43.72;9.23;;;6.20;99.90;;;;;;5045324;28;20039;-60
2021/11/08 02:13:07;;;;;;;25.65;6.53;;;6.30;99.90;;;;;;5041399;28;20030;-59
2021/11/08 02:15:36;;;;;;;37.67;7.55;;;6.30;99.90;;;;;;5052242;28;20161;-57
2021/11/08 02:18:06;;;;;;;26.88;7.10;;;6.40;99.90;;;;;;5052151;28;20032;-57
2021/11/08 02:20:32;;;;;;;33.80;6.60;;;6.40;99.90;;;;;;5049581;28;20021;-59
2021/11/08 02:23:05;;;;;;;35.35;7.32;;;6.50;99.90;;;;;;5052337;28;20481;-60
2021/11/08 02:25:33;;;;;;;41.92;6.85;;;6.50;99.90;;;;;;5044811;28;20013;-58
2021/11/08 02:27:59;;;;;;;37.85;7.40;;;6.50;99.90;;;;;;5043201;28;20078;-59
2021/11/08 02:30:28;;;;;;;34.17;7.70;;;6.60;99.90;;;;;;5051545;28;20486;-61
2021/11/08 02:32:54;;;;;;;34.83;6.75;;;6.50;99.90;;;;;;5051570;28;20025;-57
2021/11/08 02:35:22;;;;;;;38.40;7.30;;;6.60;99.90;;;;;;5052268;28;20051;-59
2021/11/08 02:37:49;;;;;;;40.97;9.15;;;6.60;99.90;;;;;;5049853;28;20486;-54
2021/11/08 02:40:22;;;;;;;33.00;7.50;;;6.60;99.90;;;;;;5051342;28;20475;-58
2021/11/08 02:42:53;;;;;;;31.77;6.53;;;6.60;99.90;;;;;;5049589;28;20151;-60
2021/11/08 02:45:21;;;;;;;30.45;7.38;;;6.60;99.90;;;;;;5049580;28;20048;-59
2021/11/08 02:47:49;;;;;;;31.23;7.45;;;6.60;99.90;;;;;;5047021;28;20021;-57
2021/11/08 02:50:16;;;;;;;30.35;6.63;;;6.60;99.90;;;;;;5051264;28;20029;-60
2021/11/08 02:52:43;;;;;;;23.27;6.78;;;6.70;99.90;;;;;;5050427;28;20035;-60
2021/11/08 02:55:09;;;;;;;39.70;7.60;;;6.60;99.90;;;;;;5045180;28;20435;-60
2021/11/08 02:57:38;;;;;;;37.92;7.15;;;6.70;99.90;;;;;;5045934;28;20147;-60
2021/11/08 03:00:09;;;;;;;26.70;7.70;;;6.70;99.90;;;;;;5050575;28;20029;-59
2021/11/08 03:02:38;;;;;;;26.48;6.22;;;6.70;99.90;;;;;;5050963;28;20032;-60
2021/11/08 03:05:05;;;;;;;37.00;8.18;;;6.70;99.90;;;;;;5051511;28;20521;-59
2021/11/08 03:07:35;;;;;;;33.83;7.32;;;6.70;99.90;;;;;;5051476;28;20171;-58
2021/11/08 03:10:04;;;;;;;35.38;7.88;;;6.70;99.90;;;;;;5048423;28;20498;-58
2021/11/08 03:12:33;;;;;;;34.58;7.78;;;6.70;99.90;;;;;;5042758;28;20863;-58
2021/11/08 03:17:30;;;;;;;38.88;9.02;;;6.70;99.90;;;;;;5051354;28;20025;-61
2021/11/08 03:19:56;;;;;;;46.80;9.50;;;6.70;99.90;;;;;;5050513;28;20032;-59
2021/11/08 03:22:26;;;;;;;52.17;9.90;;;6.70;99.90;;;;;;5046937;28;20518;-61
2021/11/08 03:24:58;;;;;;;44.85;10.55;;;6.80;99.90;;;;;;5045238;28;20033;-60
2021/11/08 03:30:22;;;;;;;50.28;10.27;;;6.70;99.90;;;;;;5046447;28;20091;-59
2021/11/08 03:32:52;;;;;;;42.20;10.80;;;6.70;99.90;;;;;;5046947;28;20028;-60
2021/11/08 03:35:21;;;;;;;35.50;11.95;;;6.80;99.90;;;;;;5036322;28;20419;-60
2021/11/08 03:37:47;;;;;;;45.53;10.32;;;6.80;99.90;;;;;;5039472;28;20100;-61
2021/11/08 03:40:18;;;;;;;41.45;9.40;;;6.80;99.90;;;;;;5042815;28;20038;-60
2021/11/08 03:42:45;;;;;;;37.22;11.90;;;6.80;99.90;;;;;;5039098;28;20025;-58
2021/11/08 03:45:11;;;;;;;34.72;10.20;;;6.80;99.90;;;;;;5048149;28;20414;-61
2021/11/08 03:47:37;;;;;;;44.72;12.35;;;6.80;99.90;;;;;;5046518;28;20032;-60
2021/11/08 03:50:08;;;;;;;41.72;11.30;;;6.80;99.90;;;;;;5047189;28;20025;-60
2021/11/08 03:52:34;;;;;;;50.15;10.80;;;6.80;99.90;;;;;;5045443;28;20386;-59
2021/11/08 03:55:00;;;;;;;51.53;11.82;;;6.80;99.90;;;;;;5037888;28;20040;-59
2021/11/08 03:57:27;;;;;;;40.30;9.77;;;6.80;99.90;;;;;;5044256;28;20029;-59
2021/11/08 03:59:53;;;;;;;33.58;9.40;;;6.80;99.90;;;;;;5047810;28;20410;-59
2021/11/08 04:02:19;;;;;;;44.17;9.80;;;6.80;99.90;;;;;;5045066;28;20043;-60
2021/11/08 04:04:45;;;;;;;38.60;9.52;;;6.80;99.90;;;;;;5045540;28;20031;-59
2021/11/08 04:07:10;;;;;;;31.77;9.25;;;6.80;99.90;;;;;;5049166;28;20852;-60
2021/11/08 04:09:37;;;;;;;50.55;10.57;;;6.80;99.90;;;;;;5049871;28;20039;-59
2021/11/08 04:12:03;;;;;;;38.72;9.95;;;6.80;99.90;;;;;;5043600;28;20044;-60
2021/11/08 04:14:29;;;;;;;37.10;9.45;;;6.80;99.90;;;;;;5042365;28;20029;-59
2021/11/08 04:16:54;;;;;;;40.45;8.02;;;6.80;99.90;;;;;;5049813;28;20112;-59
2021/11/08 04:19:27;;;;;;;34.97;8.32;;;6.80;99.90;;;;;;5045373;28;20604;-60
2021/11/08 04:21:52;;;;;;;28.85;7.03;;;6.80;99.90;;;;;;5043778;28;20049;-58
2021/11/08 04:24:18;;;;;;;25.65;7.35;;;6.80;99.90;;;;;;5044355;28;20068;-58
2021/11/08 04:26:44;;;;;;;24.10;7.93;;;6.80;99.90;;;;;;5041557;28;20069;-58
2021/11/08 04:29:09;;;;;;;22.95;7.30;;;6.70;99.90;;;;;;5038215;28;20040;-57
2021/11/08 04:31:37;;;;;;;40.15;10.25;;;6.70;99.90;;;;;;5046120;28;20091;-61
2021/11/08 04:34:18;;;;;;;28.70;8.65;;;6.70;99.90;;;;;;5048870;28;20040;-59
2021/11/08 04:39:45;;;;;;;30.75;7.97;;;6.70;99.90;;;;;;5036477;28;20039;-60
2021/11/08 05:22:23;;;;;;;49.63;11.75;;;6.70;99.90;;;;;;5038962;28;20039;-61
2021/11/08 05:30:07;;;;;;;;;;;6.70;99.90;;;;;;5049663;28;20095;-60
2021/11/08 05:32:35;;;;;;;30.75;8.30;;;6.70;99.90;;;;;;5047690;28;20022;-60
2021/11/08 05:35:03;;;;;;;33.47;8.15;;;6.70;99.90;;;;;;5042877;28;20068;-57
2021/11/08 05:37:29;;;;;;;38.47;8.65;;;6.70;99.90;;;;;;5042333;28;20380;-59
2021/11/08 05:39:58;;;;;;;39.20;9.05;;;6.70;99.90;;;;;;5049141;28;20029;-59
2021/11/08 05:42:24;;;;;;;38.70;9.35;;;6.70;99.90;;;;;;5042960;28;20120;-59
2021/11/08 05:44:51;;;;;;;34.38;8.98;;;6.70;99.90;;;;;;5043574;28;20036;-60
2021/11/08 05:47:17;;;;;;;39.85;8.93;;;6.60;99.90;;;;;;5044261;28;20775;-63
2021/11/08 05:49:45;;;;;;;29.98;9.05;;;6.60;99.90;;;;;;5049189;28;20036;-59
2021/11/08 05:52:13;;;;;;;40.20;9.23;;;6.60;99.90;;;;;;5038859;28;20240;-61
2021/11/08 05:54:38;;;;;;;43.78;10.43;;;6.70;99.90;;;;;;5051608;28;20025;-60
2021/11/08 05:57:28;;;;;;;28.35;9.90;;;6.70;99.90;;;;;;5043289;28;20525;-58
2021/11/08 06:49:14;;;;;;;;;;;6.80;99.90;;;;;;5048270;28;20548;-60
2021/11/08 06:51:40;;;;;;;30.50;7.70;;;6.80;99.90;;;;;;5045613;28;19912;-60
2021/11/08 06:54:06;;;;;;;38.45;8.27;;;6.80;99.90;;;;;;5043394;28;20399;-61
2021/11/08 06:56:38;;;;;;;37.17;8.93;;;6.80;99.90;;;;;;5050241;28;20040;-60
2021/11/08 06:59:04;;;;;;;36.25;8.40;;;6.90;99.90;;;;;;5049848;28;20082;-59
2021/11/08 07:01:31;;;;;;;30.85;7.32;;;6.90;99.90;;;;;;5048245;28;20028;-61
2021/11/08 07:03:56;;;;;;;33.15;8.35;;;6.90;99.90;;;;;;5048575;28;20029;-62
2021/11/08 07:06:23;;;;;;;42.95;8.35;;;6.90;99.90;;;;;;5045078;28;20029;-60
2021/11/08 07:08:49;;;;;;;41.75;8.68;;;6.90;99.90;;;;;;5045728;28;20033;-60
2021/11/08 07:11:15;;;;;;;40.97;8.68;;;6.90;99.90;;;;;;5044892;28;20076;-59
2021/11/08 07:13:41;;;;;;;34.25;8.70;;;6.90;99.90;;;;;;5045529;28;20029;-61
2021/11/08 07:16:07;;;;;;;39.10;8.98;;;6.90;99.90;;;;;;5041258;28;20037;-62
2021/11/08 07:18:32;;;;;;;36.20;8.80;;;7.00;99.90;;;;;;5047544;28;20495;-62
2021/11/08 07:20:58;;;;;;;35.83;7.63;;;7.00;99.90;;;;;;5046863;28;20041;-61
2021/11/08 07:23:23;;;;;;;35.65;8.45;;;7.00;99.90;;;;;;5048921;28;20037;-60
2021/11/08 07:25:49;;;;;;;26.55;8.20;;;7.00;99.90;;;;;;5045467;28;20025;-60
2021/11/08 07:28:15;;;;;;;31.90;9.40;;;7.00;99.90;;;;;;5044398;28;20029;-59
2021/11/08 07:30:44;;;;;;;29.58;8.02;;;7.00;99.90;;;;;;5045996;28;20047;-61
2021/11/08 07:33:10;;;;;;;30.65;9.07;;;7.00;99.90;;;;;;5024190;28;20049;-59
2021/11/08 07:35:36;;;;;;;37.22;8.15;;;7.10;99.90;;;;;;5039272;28;20510;-60
2021/11/08 07:38:02;;;;;;;33.85;8.10;;;7.10;99.90;;;;;;5042812;28;20032;-61
2021/11/08 07:40:28;;;;;;;46.83;8.27;;;7.10;99.90;;;;;;5046692;28;20024;-52
2021/11/08 07:42:54;;;;;;;41.85;9.18;;;7.20;99.90;;;;;;5045598;28;20445;-60
2021/11/08 07:45:21;;;;;;;36.42;9.02;;;7.20;99.90;;;;;;5042361;28;20105;-59
2021/11/08 07:47:46;;;;;;;24.58;7.38;;;7.20;99.90;;;;;;5045261;28;20052;-61
2021/11/08 07:50:12;;;;;;;36.15;9.40;;;7.30;99.90;;;;;;5036863;28;20702;-62
2021/11/08 07:52:38;;;;;;;27.25;7.95;;;7.40;99.90;;;;;;5039663;28;20029;-60
2021/11/08 07:55:04;;;;;;;42.83;8.68;;;7.40;99.90;;;;;;5042881;28;20116;-62
2021/11/08 07:57:29;;;;;;;28.92;8.30;;;7.50;99.90;;;;;;5046968;28;20437;-57
2021/11/08 07:59:56;;;;;;;28.30;7.43;;;7.60;99.90;;;;;;5043684;28;20025;-55
2021/11/08 08:02:22;;;;;;;29.30;8.38;;;7.60;99.90;;;;;;5040747;28;20017;-62
2021/11/08 08:04:48;;;;;;;27.67;8.13;;;7.60;99.90;;;;;;5041642;28;20044;-60
2021/11/08 08:07:14;;;;;;;32.95;7.63;;;7.70;99.90;;;;;;5043713;28;20412;-59
2021/11/08 08:09:40;;;;;;;25.20;6.60;;;7.60;99.90;;;;;;5045896;28;20462;-58
2021/11/08 08:12:06;;;;;;;26.30;7.22;;;7.80;99.90;;;;;;5049656;28;20410;-58
2021/11/08 08:14:32;;;;;;;27.35;7.05;;;7.80;99.90;;;;;;5045843;28;20013;-58
2021/11/08 08:17:01;;;;;;;21.83;7.22;;;7.90;99.90;;;;;;5037738;28;20036;-59
2021/11/08 08:19:26;;;;;;;38.47;9.90;;;7.90;99.90;;;;;;5036752;28;20032;-58
2021/11/08 08:21:52;;;;;;;37.53;7.28;;;7.90;99.90;;;;;;5049604;28;20029;-55
2021/11/08 08:24:17;;;;;;;29.27;8.18;;;8.00;99.90;;;;;;5040899;28;20033;-56
2021/11/08 08:26:44;;;;;;;35.17;8.73;;;8.10;99.90;;;;;;5043571;28;20072;-60
2021/11/08 08:29:11;;;;;;;28.88;8.18;;;8.20;99.90;;;;;;5037842;28;20029;-60
2021/11/08 08:31:40;;;;;;;30.55;7.95;;;8.30;99.90;;;;;;5047434;28;20044;-61
2021/11/08 08:34:10;;;;;;;36.20;8.02;;;8.40;99.90;;;;;;5031356;28;20033;-61
2021/11/08 08:36:36;;;;;;;33.03;8.95;;;8.40;99.90;;;;;;5048386;28;20135;-61
2021/11/08 08:39:03;;;;;;;37.10;11.07;;;8.40;99.90;;;;;;5046622;28;20100;-59
2021/11/08 08:41:29;;;;;;;31.58;8.25;;;8.40;99.90;;;;;;5040113;28;20044;-58
2021/11/08 08:43:54;;;;;;;44.13;8.68;;;8.40;99.90;;;;;;5044325;28;20024;-54
2021/11/08 08:46:20;;;;;;;27.95;7.93;;;8.40;99.90;;;;;;5048089;28;20488;-60
2021/11/08 08:48:47;;;;;;;29.92;8.07;;;8.50;99.90;;;;;;5040855;28;20029;-59
2021/11/08 08:51:13;;;;;;;49.95;11.55;;;8.50;99.90;;;;;;5047636;28;20078;-58
2021/11/08 08:53:39;;;;;;;40.30;14.95;;;8.50;99.90;;;;;;5041599;28;20044;-58
2021/11/08 08:56:05;;;;;;;36.47;9.02;;;8.60;99.90;;;;;;5046390;28;20482;-61
2021/11/08 08:58:31;;;;;;;35.05;8.75;;;8.70;99.90;;;;;;5043426;28;21001;-61
2021/11/08 09:00:57;;;;;;;36.00;10.57;;;8.60;99.90;;;;;;5046322;28;20033;-62
2021/11/08 09:03:23;;;;;;;41.67;8.98;;;8.60;99.90;;;;;;5046330;28;20025;-58
2021/11/08 09:05:49;;;;;;;32.17;9.27;;;8.60;99.90;;;;;;5041430;28;20470;-59
2021/11/08 09:08:16;;;;;;;33.97;7.80;;;8.60;99.90;;;;;;5042962;28;20475;-61
2021/11/08 09:10:42;;;;;;;32.63;9.07;;;8.70;99.90;;;;;;5042672;28;20443;-60
2021/11/08 09:13:09;;;;;;;32.85;8.32;;;8.70;99.90;;;;;;5045526;28;20111;-58
2021/11/08 09:15:37;;;;;;;27.23;8.73;;;8.80;99.90;;;;;;5045944;28;20024;-58
2021/11/08 09:18:04;;;;;;;28.85;8.98;;;8.80;99.90;;;;;;5048259;28;20108;-58
2021/11/08 09:20:31;;;;;;;23.48;7.38;;;8.80;99.90;;;;;;5045560;28;20366;-58
2021/11/08 09:22:57;;;;;;;27.98;6.90;;;8.80;99.90;;;;;;5040871;28;20027;-58
2021/11/08 09:25:25;;;;;;;24.27;7.82;;;8.90;99.90;;;;;;5043040;28;20029;-57
2021/11/08 09:27:53;;;;;;;26.20;7.45;;;8.90;99.90;;;;;;5038566;28;20489;-60
2021/11/08 09:30:21;;;;;;;28.30;7.47;;;8.80;99.90;;;;;;5046379;28;20036;-57
2021/11/08 09:32:47;;;;;;;30.10;10.23;;;8.80;99.90;;;;;;5046846;28;20052;-60
2021/11/08 09:35:14;;;;;;;43.75;9.98;;;8.80;99.90;;;;;;5031988;28;20510;-60
2021/11/08 09:37:44;;;;;;;31.38;10.27;;;8.80;99.90;;;;;;5045507;28;20033;-57
2021/11/08 09:40:17;;;;;;;49.03;12.65;;;8.70;99.90;;;;;;5038937;28;20021;-59
2021/11/08 09:42:43;;;;;;;31.67;10.07;;;8.60;99.90;;;;;;5041050;28;20103;-59
2021/11/08 09:45:10;;;;;;;36.65;12.85;;;8.60;99.90;;;;;;5044559;28;20102;-58
2021/11/08 09:47:36;;;;;;;28.27;9.80;;;8.70;99.90;;;;;;5041741;28;20040;-60
2021/11/08 09:50:06;;;;;;;41.42;13.20;;;8.70;99.90;;;;;;5045123;28;20025;-60
2021/11/08 09:52:37;;;;;;;37.22;12.07;;;8.80;99.90;;;;;;5048466;28;20021;-59
2021/11/08 09:55:05;;;;;;;35.53;8.80;;;8.80;99.90;;;;;;5039957;28;20033;-59
2021/11/08 09:57:31;;;;;;;35.83;10.07;;;8.90;99.90;;;;;;5036276;28;20017;-59
2021/11/08 09:59:57;;;;;;;27.63;9.07;;;9.00;99.90;;;;;;5041822;28;20029;-58
2021/11/08 10:02:22;;;;;;;41.63;13.43;;;9.00;99.90;;;;;;5043835;28;20030;-61
2021/11/08 10:04:48;;;;;;;27.52;9.20;;;9.00;99.90;;;;;;5041054;28;20032;-59
2021/11/08 10:07:15;;;;;;;29.83;9.23;;;9.10;99.90;;;;;;5040768;28;20044;-58
2021/11/08 10:09:41;;;;;;;26.63;7.70;;;9.20;99.90;;;;;;5042438;28;20045;-60
2021/11/08 10:12:10;;;;;;;25.58;7.85;;;9.30;99.90;;;;;;5050743;28;20393;-60
2021/11/08 10:14:36;;;;;;;20.05;7.88;;;9.30;99.90;;;;;;5046736;28;20394;-60
2021/11/08 10:17:02;;;;;;;38.58;9.82;;;9.40;99.90;;;;;;5049836;28;20056;-59
2021/11/08 10:19:32;;;;;;;25.75;7.78;;;9.50;99.90;;;;;;5047478;28;20049;-60
2021/11/08 10:21:58;;;;;;;24.52;9.15;;;9.60;99.90;;;;;;5050375;28;20029;-60
2021/11/08 10:24:36;;;;;;;32.08;9.68;;;9.80;99.90;;;;;;5048289;28;20509;-61
2021/11/08 10:27:06;;;;;;;33.75;9.73;;;10.00;99.90;;;;;;5047267;28;20048;-59
2021/11/08 10:29:32;;;;;;;31.08;11.50;;;10.20;99.90;;;;;;5048965;28;20387;-60
2021/11/08 10:32:02;;;;;;;20.95;7.65;;;10.10;99.90;;;;;;5046775;28;20036;-58
2021/11/08 10:34:29;;;;;;;32.10;12.32;;;10.30;99.90;;;;;;5047753;28;20052;-59
2021/11/08 10:36:56;;;;;;;29.05;11.55;;;10.40;99.90;;;;;;5048163;28;20442;-60
2021/11/08 10:39:21;;;;;;;29.40;8.93;;;10.40;99.90;;;;;;5045357;28;20132;-57
2021/11/08 10:41:47;;;;;;;28.05;8.15;;;10.40;99.90;;;;;;5045431;28;20112;-60
2021/11/08 10:44:21;;;;;;;35.85;10.63;;;10.50;99.90;;;;;;5037121;28;20053;-59
2021/11/08 10:46:57;;;;;;;40.00;11.60;;;10.50;99.90;;;;;;5040969;28;20049;-60
2021/11/08 10:49:25;;;;;;;34.45;13.13;;;10.50;99.90;;;;;;5044152;28;20050;-60
2021/11/08 10:52:00;;;;;;;35.30;10.32;;;10.30;99.90;;;;;;5050685;28;20082;-59
2021/11/08 10:54:33;;;;;;;23.90;9.88;;;10.40;99.90;;;;;;5049462;28;20021;-58
2021/11/08 10:57:07;;;;;;;35.92;8.93;;;10.60;99.90;;;;;;5051067;28;20602;-58
2021/11/08 10:59:43;;;;;;;39.08;10.15;;;10.70;99.90;;;;;;5046465;28;20024;-59
2021/11/08 11:02:11;;;;;;;29.02;9.60;;;10.80;99.90;;;;;;5046020;28;20491;-60
2021/11/08 11:04:45;;;;;;;40.15;15.93;;;10.90;99.90;;;;;;5043889;28;20045;-59
2021/11/08 11:07:22;;;;;;;45.05;13.52;;;10.80;99.90;;;;;;5044339;28;20116;-58
2021/11/08 11:09:49;;;;;;;49.95;16.40;;;10.70;99.90;;;;;;5046286;28;20108;-60
2021/11/08 11:12:25;;;;;;;41.95;12.50;;;10.70;99.90;;;;;;5044544;28;20029;-59
2021/11/08 11:15:08;;;;;;;33.85;10.40;;;10.70;99.90;;;;;;5047948;28;20161;-58
2021/11/08 11:17:39;;;;;;;32.00;11.85;;;10.70;99.90;;;;;;5050652;28;20025;-60
2021/11/08 11:20:09;;;;;;;40.60;14.52;;;10.80;99.90;;;;;;5047788;28;20052;-60
2021/11/08 11:22:37;;;;;;;63.78;24.52;;;10.80;99.90;;;;;;5050201;28;20029;-59
2021/11/08 11:25:07;;;;;;;46.13;22.00;;;10.80;99.90;;;;;;5049084;28;20061;-57
2021/11/08 11:27:51;;;;;;;33.63;11.18;;;10.80;99.90;;;;;;5046527;28;20052;-59
2021/11/08 11:30:22;;;;;;;36.13;13.05;;;10.70;99.90;;;;;;5038830;28;20106;-58
2021/11/08 11:33:04;;;;;;;42.72;16.27;;;10.60;99.90;;;;;;5042489;28;20025;-59
2021/11/08 11:35:33;;;;;;;40.47;14.63;;;10.50;99.90;;;;;;5044268;28;20029;-55
2021/11/08 11:38:09;;;;;;;35.85;9.77;;;10.50;99.90;;;;;;5047914;28;20029;-57
2021/11/08 11:40:39;;;;;;;36.20;10.25;;;10.40;99.90;;;;;;5048231;28;20612;-58
2021/11/08 11:43:11;;;;;;;31.65;10.13;;;10.40;99.90;;;;;;5047799;28;20107;-59
2021/11/08 11:45:53;;;;;;;28.55;9.45;;;10.50;99.90;;;;;;5033857;28;20806;-57
2021/11/08 11:48:27;;;;;;;38.70;10.20;;;10.40;99.90;;;;;;5044784;28;20017;-58
2021/11/08 11:50:53;;;;;;;;;;;10.50;99.90;;;;;;5046790;28;20025;-58
2021/11/08 11:53:19;;;;;;;33.30;8.05;;;10.80;99.90;;;;;;5047464;28;19915;-57
2021/11/08 11:55:46;;;;;;;52.58;14.13;;;11.20;99.90;;;;;;5041570;28;20111;-58
2021/11/08 11:58:13;;;;;;;42.92;11.50;;;11.30;99.90;;;;;;5049809;28;20021;-60
2021/11/08 12:00:41;;;;;;;41.47;12.40;;;11.40;99.90;;;;;;5041125;28;20036;-58
2021/11/08 12:03:07;;;;;;;42.92;14.93;;;11.60;99.90;;;;;;5046877;28;20047;-60
2021/11/08 12:05:35;;;;;;;37.80;11.20;;;11.50;99.90;;;;;;5043777;28;20021;-57
2021/11/08 12:08:04;;;;;;;31.88;12.10;;;11.40;99.90;;;;;;5049199;28;20087;-60
2021/11/08 12:10:30;;;;;;;44.03;15.95;;;11.30;99.90;;;;;;5044230;28;20494;-58
2021/11/08 12:12:55;;;;;;;51.05;18.15;;;11.40;99.90;;;;;;5044547;28;20031;-59
2021/11/08 12:15:29;;;;;;;43.88;14.63;;;11.50;99.90;;;;;;5045084;28;20021;-60
2021/11/08 12:18:08;;;;;;;37.83;10.82;;;11.60;99.90;;;;;;5048344;28;20101;-60
2021/11/08 12:20:44;;;;;;;36.75;14.27;;;11.80;99.90;;;;;;5041875;28;20025;-60
2021/11/08 12:23:17;;;;;;;36.10;10.13;;;11.80;99.90;;;;;;5046909;28;20087;-59
2021/11/08 12:25:44;;;;;;;37.33;10.82;;;11.70;99.90;;;;;;5042173;28;20025;-61
2021/11/08 12:28:14;;;;;;;40.65;10.63;;;11.60;99.90;;;;;;5045963;28;20494;-59
2021/11/08 12:30:44;;;;;;;41.47;11.25;;;11.50;99.90;;;;;;5047846;28;20036;-59
2021/11/08 12:33:29;;;;;;;38.20;9.70;;;11.50;99.90;;;;;;5045505;28;20029;-59
2021/11/08 12:36:14;;;;;;;;;;;11.40;99.90;;;;;;5048659;28;20045;-59
2021/11/08 12:38:52;;;;;;;39.15;12.38;;;11.40;99.90;;;;;;5046737;28;20399;-60
2021/11/08 12:41:29;;;;;;;53.13;19.30;;;11.30;99.90;;;;;;5048740;28;20386;-57
2021/11/08 12:43:57;;;;;;;61.30;20.95;;;11.20;99.90;;;;;;5047778;28;20027;-56
2021/11/08 12:46:27;;;;;;;43.58;10.73;;;11.00;99.90;;;;;;5044429;28;20033;-58
2021/11/08 12:49:08;;;;;;;41.28;9.02;;;10.90;99.90;;;;;;5038770;28;20542;-60
2021/11/08 12:51:34;;;;;;;35.28;8.95;;;10.80;99.90;;;;;;5048228;28;20583;-57
2021/11/08 12:54:07;;;;;;;36.95;9.63;;;10.80;99.90;;;;;;5036533;28;20037;-59
2021/11/08 12:56:40;;;;;;;32.50;9.57;;;10.70;99.90;;;;;;5047703;28;20036;-60
2021/11/08 12:59:26;;;;;;;44.53;11.75;;;10.60;99.90;;;;;;5047107;28;20035;-58
2021/11/08 13:02:11;;;;;;;35.50;10.25;;;10.70;99.90;;;;;;5047447;28;20053;-58
2021/11/08 13:04:47;;;;;;;39.67;8.50;;;10.70;99.90;;;;;;5042500;28;20029;-60
2021/11/08 13:07:14;;;;;;;34.67;7.15;;;10.70;99.90;;;;;;5043545;28;20025;-59
2021/11/08 13:09:44;;;;;;;40.63;8.00;;;10.80;99.90;;;;;;5047122;28;20083;-61
2021/11/08 13:12:14;;;;;;;36.30;9.10;;;10.90;99.90;;;;;;5048869;28;20467;-60
2021/11/08 13:14:41;;;;;;;134.15;51.97;;;10.90;99.90;;;;;;5045712;28;20479;-61
2021/11/08 13:17:09;;;;;;;46.28;13.25;;;10.90;99.90;;;;;;5046162;28;20107;-59
2021/11/08 13:19:51;;;;;;;38.45;10.98;;;11.00;99.90;;;;;;5044679;28;20430;-58
2021/11/08 13:22:38;;;;;;;38.67;10.43;;;11.10;99.90;;;;;;5048100;28;20033;-59
2021/11/08 13:25:11;;;;;;;44.03;13.38;;;11.10;99.90;;;;;;5043744;28;20034;-60
2021/11/08 13:27:37;;;;;;;38.63;9.95;;;11.10;99.90;;;;;;5043977;28;20029;-60
2021/11/08 13:30:08;;;;;;;45.75;13.15;;;11.10;99.90;;;;;;5047202;28;20057;-60
2021/11/08 13:32:35;;;;;;;41.63;8.85;;;11.10;99.90;;;;;;5044762;28;20036;-61
2021/11/08 13:35:26;;;;;;;36.85;6.53;;;11.20;99.90;;;;;;5045768;28;20053;-60
2021/11/08 13:38:16;;;;;;;32.22;9.20;;;11.20;99.90;;;;;;5045582;28;20029;-59
2021/11/08 13:41:19;;;;;;;43.85;12.63;;;11.10;99.90;;;;;;5045407;28;20112;-61
2021/11/08 13:43:52;;;;;;;45.10;10.20;;;11.20;99.90;;;;;;5042080;28;21928;-61
2021/11/08 13:46:23;;;;;;;39.53;9.50;;;11.20;99.90;;;;;;5049550;28;20115;-58
2021/11/08 13:48:55;;;;;;;87.95;33.00;;;11.20;99.90;;;;;;5047810;28;20029;-60
2021/11/08 13:51:40;;;;;;;101.43;43.28;;;11.10;99.90;;;;;;5038942;28;20510;-58
2021/11/08 13:54:08;;;;;;;126.22;59.50;;;11.10;99.90;;;;;;5040502;28;20487;-61
2021/11/08 13:56:37;;;;;;;88.07;34.35;;;11.00;99.90;;;;;;5038229;28;20045;-59
2021/11/08 13:59:07;;;;;;;63.55;20.75;;;11.10;99.90;;;;;;5045489;28;20048;-61
2021/11/08 14:01:36;;;;;;;41.30;12.45;;;11.00;99.90;;;;;;5051450;28;20494;-58
2021/11/08 14:04:03;;;;;;;35.75;10.65;;;11.00;99.90;;;;;;5047861;28;20048;-60
2021/11/08 14:06:36;;;;;;;31.85;9.25;;;10.90;99.90;;;;;;5047507;28;20021;-59
2021/11/08 14:09:08;;;;;;;30.35;8.60;;;10.90;99.90;;;;;;5047663;28;20041;-60
2021/11/08 14:11:36;;;;;;;26.23;7.53;;;10.90;99.90;;;;;;5049054;28;20484;-59
2021/11/08 14:14:20;;;;;;;26.42;7.15;;;10.90;99.90;;;;;;5050411;28;20041;-60
2021/11/08 14:16:48;;;;;;;29.70;7.88;;;10.80;99.90;;;;;;5048185;28;20021;-59
2021/11/08 14:19:15;;;;;;;27.30;5.75;;;10.70;99.90;;;;;;5049839;28;20033;-59
2021/11/08 14:21:43;;;;;;;31.70;5.80;;;10.70;99.90;;;;;;5051929;28;20055;-61
2021/11/08 14:24:10;;;;;;;28.95;6.97;;;10.70;99.90;;;;;;5046777;28;20071;-60
2021/11/08 14:26:39;;;;;;;26.80;5.65;;;10.60;99.90;;;;;;5045183;28;20518;-60
2021/11/08 14:29:20;;;;;;;21.23;5.00;;;10.60;99.90;;;;;;5047287;28;20120;-60
2021/11/08 14:32:18;;;;;;;27.25;5.93;;;10.50;99.90;;;;;;5047009;28;20040;-58
2021/11/08 14:34:50;;;;;;;24.38;5.53;;;10.50;99.90;;;;;;5047065;28;20044;-60